Time;durP1;ratioP1;P1;durP2;ratioP2;P2;SDS_P1;SDS_P2;PMS_P1;PMS_P2;Temp;Humidity;BMP_temperature;BMP_pressure;BME280_temperature;BME280_humidity;BME280_pressure;Samples;Min_cycle;Max_cycle;Signal;HPM_P1;HPM_P2
2021/09/17 00:00:43;;;;;;;2.47;2.28;;;19.10;99.90;;;;;;5050638;28;20197;-71
2021/09/17 00:03:10;;;;;;;2.58;2.38;;;19.10;99.90;;;;;;5049754;28;20205;-71
2021/09/17 00:05:38;;;;;;;2.60;2.40;;;19.10;99.90;;;;;;5050516;28;20329;-71
2021/09/17 00:08:05;;;;;;;2.50;2.30;;;19.10;99.90;;;;;;5050386;28;20198;-71
2021/09/17 00:10:32;;;;;;;3.88;2.00;;;19.10;99.90;;;;;;5048555;28;20652;-71
2021/09/17 00:12:59;;;;;;;3.10;2.55;;;19.10;99.90;;;;;;5044048;28;20230;-71
2021/09/17 00:15:26;;;;;;;2.30;2.15;;;19.10;99.90;;;;;;5049141;28;20661;-71
2021/09/17 00:17:56;;;;;;;2.63;2.42;;;19.10;99.90;;;;;;5049792;28;20194;-71
2021/09/17 00:20:24;;;;;;;4.07;2.60;;;19.10;99.90;;;;;;5051105;28;20289;-71
2021/09/17 00:22:50;;;;;;;2.22;2.13;;;19.10;99.90;;;;;;5049054;28;20198;-73
2021/09/17 00:25:18;;;;;;;2.33;2.00;;;19.10;99.90;;;;;;5049350;28;20218;-72
2021/09/17 00:27:45;;;;;;;2.50;2.30;;;19.10;99.90;;;;;;5048158;28;20285;-72
2021/09/17 00:30:12;;;;;;;1.92;1.83;;;19.10;99.90;;;;;;5050552;28;20569;-71
2021/09/17 00:32:39;;;;;;;2.13;2.00;;;19.10;99.90;;;;;;5048658;28;20567;-71
2021/09/17 00:35:08;;;;;;;2.08;1.98;;;19.10;99.90;;;;;;5048697;28;20559;-71
2021/09/17 00:37:35;;;;;;;2.17;2.08;;;19.10;99.90;;;;;;5048982;28;20201;-71
2021/09/17 00:40:02;;;;;;;2.17;2.08;;;19.00;99.90;;;;;;5049378;28;20194;-71
2021/09/17 00:42:29;;;;;;;2.10;1.90;;;19.00;99.90;;;;;;5048287;28;20201;-71
2021/09/17 00:44:56;;;;;;;2.25;2.15;;;19.00;99.90;;;;;;5049425;28;20582;-71
2021/09/17 00:47:23;;;;;;;2.50;2.30;;;19.10;99.90;;;;;;5049375;28;20539;-71
2021/09/17 00:49:50;;;;;;;2.00;1.90;;;19.00;99.90;;;;;;5048432;28;20248;-71
2021/09/17 00:52:18;;;;;;;2.63;2.42;;;19.10;99.90;;;;;;5045082;28;20221;-71
2021/09/17 00:54:45;;;;;;;2.03;1.92;;;19.00;99.90;;;;;;5048201;28;20216;-71
2021/09/17 00:57:13;;;;;;;1.85;1.75;;;19.10;99.90;;;;;;5046549;28;20206;-71
2021/09/17 00:59:39;;;;;;;1.95;1.85;;;19.10;99.90;;;;;;5049801;28;20742;-71
2021/09/17 01:02:07;;;;;;;1.80;1.70;;;19.00;99.90;;;;;;5047406;28;20214;-71
2021/09/17 01:04:34;;;;;;;2.05;1.90;;;19.00;99.90;;;;;;5048757;28;20205;-72
2021/09/17 01:07:01;;;;;;;1.90;1.80;;;19.10;99.90;;;;;;5048085;28;20212;-72
2021/09/17 01:09:29;;;;;;;1.90;1.80;;;19.00;99.90;;;;;;5049072;28;20212;-72
2021/09/17 01:12:03;;;;;;;2.00;1.80;;;19.00;99.90;;;;;;5047391;28;20202;-72
2021/09/17 01:14:31;;;;;;;2.10;2.00;;;19.00;99.90;;;;;;5048341;28;20196;-72
2021/09/17 01:16:58;;;;;;;2.72;1.98;;;19.00;99.90;;;;;;5048969;28;20205;-72
2021/09/17 01:19:25;;;;;;;1.45;1.45;;;19.00;99.90;;;;;;5049694;28;20277;-72
2021/09/17 01:21:58;;;;;;;1.77;1.67;;;19.00;99.90;;;;;;5049185;28;20193;-73
2021/09/17 01:24:25;;;;;;;1.65;1.60;;;19.00;99.90;;;;;;5043313;28;20202;-72
2021/09/17 01:26:52;;;;;;;1.75;1.65;;;19.00;99.90;;;;;;5047717;28;20256;-72
2021/09/17 01:29:20;;;;;;;1.70;1.60;;;19.00;99.90;;;;;;5048054;28;20685;-72
2021/09/17 01:31:47;;;;;;;1.95;1.85;;;19.00;99.90;;;;;;5048215;28;20197;-72
2021/09/17 01:34:17;;;;;;;1.90;1.80;;;19.00;99.90;;;;;;5048292;28;20198;-72
2021/09/17 01:36:44;;;;;;;1.60;1.50;;;19.00;99.90;;;;;;5048664;28;20209;-71
2021/09/17 01:39:13;;;;;;;1.70;1.60;;;19.00;99.90;;;;;;5045715;28;20190;-72
2021/09/17 01:41:40;;;;;;;1.70;1.60;;;19.00;99.90;;;;;;5045681;28;20190;-70
2021/09/17 01:44:07;;;;;;;1.25;1.20;;;19.10;99.90;;;;;;5047692;28;20206;-71
2021/09/17 01:46:34;;;;;;;1.60;1.50;;;19.10;99.90;;;;;;5047991;28;20415;-71
2021/09/17 01:49:01;;;;;;;1.55;1.45;;;19.10;99.90;;;;;;5049200;28;20661;-71
2021/09/17 01:51:28;;;;;;;1.65;1.55;;;19.10;99.90;;;;;;5048016;28;20212;-71
2021/09/17 01:53:56;;;;;;;2.05;1.77;;;19.10;99.90;;;;;;5048502;28;20574;-71
2021/09/17 01:56:24;;;;;;;1.70;1.60;;;19.10;99.90;;;;;;5044814;28;20297;-71
2021/09/17 01:58:51;;;;;;;1.35;1.30;;;19.10;99.90;;;;;;5047262;28;20308;-71
2021/09/17 02:01:18;;;;;;;1.60;1.50;;;19.00;99.90;;;;;;5046724;28;20210;-71
2021/09/17 02:03:45;;;;;;;1.48;1.38;;;19.00;99.90;;;;;;5047447;28;20251;-70
2021/09/17 02:06:19;;;;;;;1.55;1.45;;;19.00;99.90;;;;;;5046723;28;20226;-71
2021/09/17 02:08:46;;;;;;;1.35;1.25;;;19.00;99.90;;;;;;5049166;28;21171;-70
2021/09/17 02:11:14;;;;;;;1.35;1.25;;;19.00;99.90;;;;;;5045245;28;20227;-71
2021/09/17 02:13:42;;;;;;;1.58;1.38;;;18.90;99.90;;;;;;5047820;28;20258;-70
2021/09/17 02:16:10;;;;;;;1.40;1.38;;;18.90;99.90;;;;;;5048218;28;20186;-71
2021/09/17 02:18:37;;;;;;;1.30;1.20;;;18.90;99.90;;;;;;5048475;28;20685;-71
2021/09/17 02:21:04;;;;;;;1.50;1.40;;;18.80;99.90;;;;;;5048723;28;20694;-72
2021/09/17 02:23:31;;;;;;;1.02;1.02;;;18.80;99.90;;;;;;5047204;28;20209;-71
2021/09/17 02:25:58;;;;;;;1.15;1.15;;;18.70;99.90;;;;;;5050563;28;20766;-71
2021/09/17 02:28:25;;;;;;;1.30;1.20;;;18.70;99.90;;;;;;5051920;28;20220;-71
2021/09/17 02:30:53;;;;;;;1.50;1.40;;;18.70;99.90;;;;;;5050675;28;20206;-71
2021/09/17 02:33:20;;;;;;;1.38;1.27;;;18.60;99.90;;;;;;5051983;28;20731;-71
2021/09/17 02:35:47;;;;;;;1.83;1.27;;;18.60;99.90;;;;;;5041542;28;20680;-71
2021/09/17 02:38:15;;;;;;;1.27;1.20;;;18.60;99.90;;;;;;5052017;28;20229;-72
2021/09/17 02:40:42;;;;;;;1.45;1.35;;;18.50;99.90;;;;;;5050800;28;20233;-71
2021/09/17 02:43:09;;;;;;;1.20;1.10;;;18.50;99.90;;;;;;5049767;28;20202;-72
2021/09/17 02:45:36;;;;;;;1.38;1.38;;;18.40;99.90;;;;;;5051385;28;20217;-71
2021/09/17 02:48:05;;;;;;;1.33;1.30;;;18.40;99.90;;;;;;5051809;28;20247;-72
2021/09/17 02:50:32;;;;;;;1.10;1.10;;;18.40;99.90;;;;;;5050558;28;20735;-71
2021/09/17 02:52:59;;;;;;;1.05;1.05;;;18.30;99.90;;;;;;5051317;28;20194;-71
2021/09/17 02:55:26;;;;;;;1.17;1.17;;;18.30;99.90;;;;;;5050662;28;20666;-70
2021/09/17 02:57:56;;;;;;;1.48;1.38;;;18.30;99.90;;;;;;5050549;28;20197;-71
2021/09/17 03:00:25;;;;;;;1.50;1.40;;;18.30;99.90;;;;;;5050678;28;20233;-71
2021/09/17 03:02:52;;;;;;;2.10;1.67;;;18.20;99.90;;;;;;5049514;28;20456;-71
2021/09/17 03:05:21;;;;;;;1.70;1.60;;;18.20;99.90;;;;;;5050263;28;20585;-71
2021/09/17 03:07:48;;;;;;;1.70;1.60;;;18.20;99.90;;;;;;5051386;28;20212;-73
2021/09/17 03:10:15;;;;;;;1.42;1.33;;;18.10;99.90;;;;;;5051312;28;20198;-71
2021/09/17 03:12:43;;;;;;;1.80;1.70;;;18.00;99.90;;;;;;5047093;28;20241;-73
2021/09/17 03:15:10;;;;;;;1.60;1.50;;;18.10;99.90;;;;;;5041725;28;20206;-72
2021/09/17 03:17:37;;;;;;;1.50;1.40;;;18.00;99.90;;;;;;5047927;28;20197;-71
2021/09/17 03:20:05;;;;;;;1.17;1.15;;;17.90;99.90;;;;;;5051829;28;20213;-72
2021/09/17 03:22:34;;;;;;;1.65;1.55;;;17.90;99.90;;;;;;5049717;28;20213;-71
2021/09/17 03:25:01;;;;;;;1.42;1.33;;;17.90;99.90;;;;;;5050577;28;20213;-72
2021/09/17 03:27:28;;;;;;;1.58;1.48;;;17.90;99.90;;;;;;5049583;28;20194;-71
2021/09/17 03:29:54;;;;;;;1.92;1.80;;;17.90;99.90;;;;;;5051213;28;20202;-71
2021/09/17 03:32:22;;;;;;;1.38;1.27;;;17.80;99.90;;;;;;5049049;28;20592;-72
2021/09/17 03:34:49;;;;;;;1.25;1.25;;;17.90;99.90;;;;;;5049603;28;20205;-72
2021/09/17 03:37:16;;;;;;;1.35;1.35;;;17.90;99.90;;;;;;5048204;28;20288;-72
2021/09/17 03:39:44;;;;;;;1.58;1.48;;;17.90;99.90;;;;;;5050500;28;20190;-72
2021/09/17 03:42:11;;;;;;;2.03;1.70;;;17.90;99.90;;;;;;5049344;28;20280;-72
2021/09/17 03:44:38;;;;;;;1.85;1.60;;;17.80;99.90;;;;;;5049315;28;20206;-72
2021/09/17 03:47:05;;;;;;;1.60;1.50;;;17.80;99.90;;;;;;5049533;28;20221;-72
2021/09/17 03:49:32;;;;;;;1.60;1.50;;;17.80;99.90;;;;;;5048600;28;20224;-72
2021/09/17 03:51:59;;;;;;;1.45;1.40;;;17.80;99.90;;;;;;5050479;28;20760;-72
2021/09/17 03:54:27;;;;;;;1.40;1.40;;;17.80;99.90;;;;;;5048288;28;20296;-72
2021/09/17 03:56:56;;;;;;;1.67;1.58;;;17.80;99.90;;;;;;5047204;28;20556;-72
2021/09/17 03:59:24;;;;;;;2.47;1.80;;;17.80;99.90;;;;;;5051562;28;20194;-73
2021/09/17 04:01:51;;;;;;;1.73;1.63;;;17.70;99.90;;;;;;5047893;28;20206;-71
2021/09/17 04:04:18;;;;;;;1.63;1.52;;;17.80;99.90;;;;;;5050342;28;20201;-72
2021/09/17 04:06:45;;;;;;;2.08;1.50;;;17.80;99.90;;;;;;5049465;28;20222;-72
2021/09/17 04:09:12;;;;;;;1.45;1.38;;;17.80;99.90;;;;;;5050168;28;20273;-72
2021/09/17 04:11:39;;;;;;;1.65;1.50;;;17.80;99.90;;;;;;5049076;28;20316;-70
2021/09/17 04:14:08;;;;;;;2.20;1.80;;;17.80;99.90;;;;;;5043250;28;20233;-71
2021/09/17 04:16:34;;;;;;;1.80;1.70;;;17.80;99.90;;;;;;5047823;28;20279;-71
2021/09/17 04:19:01;;;;;;;2.03;1.92;;;17.80;99.90;;;;;;5049306;28;20210;-71
2021/09/17 04:21:28;;;;;;;2.53;1.40;;;17.80;99.90;;;;;;5050222;28;20201;-71
2021/09/17 04:23:55;;;;;;;1.55;1.45;;;17.80;99.90;;;;;;5049967;28;20626;-72
2021/09/17 04:26:23;;;;;;;1.52;1.52;;;17.80;99.90;;;;;;5046395;28;20233;-72
2021/09/17 04:28:53;;;;;;;1.67;1.58;;;17.70;99.90;;;;;;5050228;28;20604;-71
2021/09/17 04:31:21;;;;;;;2.10;2.00;;;17.40;99.90;;;;;;5048310;28;20206;-72
2021/09/17 04:33:48;;;;;;;1.70;1.60;;;17.80;99.90;;;;;;5049260;28;20217;-71
2021/09/17 04:36:15;;;;;;;2.00;1.90;;;17.80;99.90;;;;;;5047454;28;20272;-71
2021/09/17 04:38:42;;;;;;;1.70;1.60;;;17.80;99.90;;;;;;5048462;28;20201;-71
2021/09/17 04:41:09;;;;;;;1.40;1.40;;;17.80;99.90;;;;;;5047080;28;20238;-71
2021/09/17 04:43:36;;;;;;;1.70;1.60;;;17.80;99.90;;;;;;5048858;28;20205;-71
2021/09/17 04:46:03;;;;;;;1.73;1.63;;;17.80;99.90;;;;;;5048651;28;20225;-72
2021/09/17 04:48:31;;;;;;;1.42;1.40;;;17.80;99.90;;;;;;5048118;28;20554;-71
2021/09/17 04:50:58;;;;;;;2.78;1.45;;;17.90;99.90;;;;;;5049250;28;20212;-71
2021/09/17 04:53:25;;;;;;;1.42;1.33;;;17.90;99.90;;;;;;5049869;28;20201;-71
2021/09/17 04:55:52;;;;;;;1.50;1.40;;;17.90;99.90;;;;;;5046005;28;20190;-70
2021/09/17 04:58:19;;;;;;;1.20;1.10;;;18.00;99.90;;;;;;5048665;28;20225;-70
2021/09/17 05:00:46;;;;;;;1.50;1.40;;;18.00;99.90;;;;;;5049248;28;21203;-70
2021/09/17 05:03:13;;;;;;;1.27;1.27;;;18.10;99.90;;;;;;5047307;28;20213;-71
2021/09/17 05:05:41;;;;;;;1.60;1.42;;;18.10;99.90;;;;;;5048351;28;20198;-70
2021/09/17 05:08:08;;;;;;;1.40;1.40;;;18.20;99.90;;;;;;5049068;28;20202;-72
2021/09/17 05:10:35;;;;;;;1.35;1.25;;;18.20;99.90;;;;;;5047008;28;20347;-71
2021/09/17 05:13:02;;;;;;;1.67;1.58;;;18.30;99.90;;;;;;5044594;28;20230;-71
2021/09/17 05:15:29;;;;;;;1.70;1.60;;;18.40;99.90;;;;;;5048820;28;20677;-72
2021/09/17 05:17:56;;;;;;;1.73;1.63;;;18.40;99.90;;;;;;5048388;28;20271;-71
2021/09/17 05:20:23;;;;;;;1.60;1.50;;;18.40;99.90;;;;;;5049806;28;20281;-71
2021/09/17 05:22:51;;;;;;;1.58;1.52;;;18.50;99.90;;;;;;5049252;28;20599;-71
2021/09/17 05:25:18;;;;;;;1.40;1.40;;;18.50;99.90;;;;;;5048392;28;20596;-72
2021/09/17 05:27:47;;;;;;;1.85;1.52;;;18.50;99.90;;;;;;5045952;28;20666;-72
2021/09/17 05:30:13;;;;;;;1.90;1.80;;;18.60;99.90;;;;;;5049291;28;20269;-71
2021/09/17 05:32:40;;;;;;;1.92;1.83;;;18.60;99.90;;;;;;5047009;28;20677;-70
2021/09/17 05:35:08;;;;;;;3.28;1.98;;;18.50;99.90;;;;;;5047456;28;20205;-72
2021/09/17 05:37:36;;;;;;;2.45;2.25;;;18.50;99.90;;;;;;5047632;28;20220;-72
2021/09/17 05:40:06;;;;;;;1.92;1.83;;;18.50;99.90;;;;;;5046572;28;20205;-71
2021/09/17 05:42:33;;;;;;;2.10;2.00;;;18.50;99.90;;;;;;5046168;28;20202;-71
2021/09/17 05:45:00;;;;;;;2.08;1.88;;;18.50;99.90;;;;;;5076334;28;20320;-71
2021/09/17 05:47:27;;;;;;;1.77;1.67;;;18.50;99.90;;;;;;5047438;28;20232;-71
2021/09/17 05:49:54;;;;;;;2.05;1.90;;;18.50;99.90;;;;;;5047643;28;20201;-71
2021/09/17 05:52:21;;;;;;;2.35;2.20;;;18.50;99.90;;;;;;5047124;28;20205;-71
2021/09/17 05:54:48;;;;;;;2.70;2.20;;;18.60;99.90;;;;;;5047582;28;20209;-70
2021/09/17 05:57:16;;;;;;;1.95;1.85;;;18.60;99.90;;;;;;5044980;28;20233;-73
2021/09/17 05:59:43;;;;;;;1.98;1.88;;;18.60;99.90;;;;;;5048044;28;20412;-73
2021/09/17 06:02:10;;;;;;;1.83;1.73;;;18.70;99.90;;;;;;5048300;28;20190;-71
2021/09/17 06:04:37;;;;;;;2.08;1.98;;;18.70;99.90;;;;;;5046439;28;20206;-72
2021/09/17 06:07:05;;;;;;;2.05;1.88;;;18.80;99.90;;;;;;5044699;28;20214;-72
2021/09/17 06:09:34;;;;;;;1.60;1.50;;;18.90;99.90;;;;;;5040347;28;20410;-72
2021/09/17 06:12:00;;;;;;;2.08;1.40;;;18.90;99.90;;;;;;5041675;28;20209;-72
2021/09/17 06:14:29;;;;;;;1.70;1.60;;;19.00;99.90;;;;;;5047652;28;20208;-72
2021/09/17 06:16:56;;;;;;;1.50;1.40;;;19.10;99.90;;;;;;5045337;28;20189;-71
2021/09/17 06:19:23;;;;;;;1.70;1.60;;;19.20;99.90;;;;;;5047818;28;20679;-72
2021/09/17 06:21:50;;;;;;;1.33;1.30;;;19.20;99.90;;;;;;5046827;28;20202;-71
2021/09/17 06:24:17;;;;;;;2.13;1.63;;;19.30;99.90;;;;;;5039471;28;20226;-71
2021/09/17 06:26:44;;;;;;;1.45;1.40;;;19.40;99.90;;;;;;5043279;28;20226;-71
2021/09/17 06:29:11;;;;;;;1.40;1.30;;;19.50;99.90;;;;;;5045648;28;20326;-71
2021/09/17 06:31:40;;;;;;;1.50;1.40;;;19.60;99.90;;;;;;5043648;28;20189;-71
2021/09/17 06:34:07;;;;;;;1.63;1.52;;;19.70;99.90;;;;;;5041845;28;20543;-71
2021/09/17 06:36:34;;;;;;;1.70;1.60;;;19.80;99.90;;;;;;5046478;28;20197;-71
2021/09/17 06:39:01;;;;;;;1.70;1.60;;;19.90;99.90;;;;;;5039400;28;20202;-71
2021/09/17 06:41:29;;;;;;;1.65;1.55;;;20.00;99.90;;;;;;5042944;28;20244;-71
2021/09/17 06:43:56;;;;;;;1.50;1.40;;;20.10;99.90;;;;;;5046245;28;20213;-71
2021/09/17 06:46:23;;;;;;;1.20;1.20;;;20.30;99.90;;;;;;5043731;28;20201;-71
2021/09/17 06:48:52;;;;;;;1.63;1.52;;;20.40;99.90;;;;;;5046696;28;20293;-70
2021/09/17 06:51:19;;;;;;;2.47;2.15;;;20.50;99.90;;;;;;5044795;28;20201;-70
2021/09/17 06:53:47;;;;;;;2.28;2.08;;;20.70;99.90;;;;;;5046570;28;20564;-71
2021/09/17 06:56:14;;;;;;;2.08;1.98;;;20.80;99.90;;;;;;5045008;28;20194;-72
2021/09/17 06:58:41;;;;;;;1.73;1.63;;;20.90;99.90;;;;;;5043647;28;20542;-71
2021/09/17 07:01:08;;;;;;;1.42;1.33;;;21.00;99.90;;;;;;5046838;28;20194;-71
2021/09/17 07:03:35;;;;;;;1.40;1.30;;;21.20;99.90;;;;;;5043268;28;20209;-72
2021/09/17 07:06:03;;;;;;;1.20;1.20;;;21.40;99.90;;;;;;5044248;28;20681;-72
2021/09/17 07:08:30;;;;;;;1.83;1.65;;;21.70;99.90;;;;;;5046251;28;20213;-73
2021/09/17 07:10:57;;;;;;;1.35;1.30;;;21.90;99.90;;;;;;5045198;28;20317;-72
2021/09/17 07:13:24;;;;;;;1.80;1.70;;;22.10;99.90;;;;;;5048024;28;20652;-72
2021/09/17 07:15:51;;;;;;;1.27;1.27;;;22.20;99.90;;;;;;5043036;28;20194;-71
2021/09/17 07:18:18;;;;;;;1.35;1.25;;;22.30;99.90;;;;;;5043114;28;20197;-72
2021/09/17 07:20:47;;;;;;;2.05;1.67;;;22.60;99.90;;;;;;5036887;28;20229;-72
2021/09/17 07:23:15;;;;;;;1.23;1.23;;;22.70;99.90;;;;;;5049801;28;20284;-71
2021/09/17 07:25:42;;;;;;;1.92;1.83;;;23.10;99.90;;;;;;5049272;28;20439;-72
2021/09/17 07:28:09;;;;;;;2.10;2.00;;;23.30;99.90;;;;;;5045666;28;20463;-72
2021/09/17 07:30:37;;;;;;;2.88;2.67;;;23.70;99.90;;;;;;5049646;28;20197;-72
2021/09/17 07:33:04;;;;;;;2.60;2.40;;;24.10;99.90;;;;;;5048122;28;20688;-72
2021/09/17 07:35:31;;;;;;;2.55;2.35;;;25.40;99.90;;;;;;5048288;28;20284;-72
2021/09/17 07:37:58;;;;;;;2.28;2.17;;;27.40;99.90;;;;;;5049370;28;20198;-73
2021/09/17 07:40:27;;;;;;;2.35;2.15;;;28.70;98.60;;;;;;5048704;28;20316;-72
2021/09/17 07:42:54;;;;;;;2.45;2.35;;;29.00;96.90;;;;;;5048287;28;20198;-73
2021/09/17 07:45:23;;;;;;;2.83;2.60;;;28.70;96.20;;;;;;5049604;28;20650;-73
2021/09/17 07:47:51;;;;;;;2.40;2.20;;;28.30;95.90;;;;;;5046528;28;20226;-73
2021/09/17 07:50:18;;;;;;;2.45;2.25;;;28.00;96.10;;;;;;5049453;28;20194;-73
2021/09/17 07:52:45;;;;;;;2.25;2.15;;;27.70;96.10;;;;;;5048004;28;20202;-73
2021/09/17 07:55:13;;;;;;;2.17;2.08;;;27.40;96.30;;;;;;5047569;28;20212;-72
2021/09/17 07:57:41;;;;;;;2.38;2.17;;;27.00;96.40;;;;;;5046990;28;20225;-72
2021/09/17 08:00:12;;;;;;;2.47;1.90;;;26.70;96.60;;;;;;5047553;28;20202;-72
2021/09/17 08:02:39;;;;;;;1.90;1.80;;;26.50;96.70;;;;;;5048500;28;20198;-73
2021/09/17 08:05:07;;;;;;;1.55;1.55;;;26.20;96.60;;;;;;5041841;28;20209;-72
2021/09/17 08:07:33;;;;;;;1.30;1.30;;;26.00;96.80;;;;;;5047227;28;20202;-73
2021/09/17 08:10:00;;;;;;;1.50;1.40;;;25.80;97.00;;;;;;5046758;28;20201;-73
2021/09/17 08:12:28;;;;;;;2.05;1.25;;;25.60;97.10;;;;;;5046960;28;20252;-72
2021/09/17 08:14:56;;;;;;;1.25;1.25;;;25.30;97.20;;;;;;5044644;28;20206;-72
2021/09/17 08:17:23;;;;;;;1.23;1.23;;;25.10;97.50;;;;;;5046483;28;20202;-72
2021/09/17 08:19:50;;;;;;;2.05;1.95;;;24.80;97.90;;;;;;5047873;28;20198;-71
2021/09/17 08:22:17;;;;;;;4.63;2.88;;;24.60;98.20;;;;;;5047955;28;20202;-72
2021/09/17 08:24:44;;;;;;;2.10;2.00;;;24.40;98.40;;;;;;5046399;28;20194;-73
2021/09/17 08:27:11;;;;;;;2.13;1.90;;;24.30;98.60;;;;;;5047917;28;20225;-73
2021/09/17 08:29:38;;;;;;;1.58;1.50;;;24.10;98.90;;;;;;5048062;28;20685;-73
2021/09/17 08:32:07;;;;;;;1.73;1.63;;;24.00;99.10;;;;;;5048747;28;20198;-71
2021/09/17 08:34:35;;;;;;;1.95;1.30;;;23.90;99.30;;;;;;5048390;28;20193;-73
2021/09/17 08:37:07;;;;;;;1.27;1.27;;;23.80;99.50;;;;;;5045713;28;20489;-72
2021/09/17 08:39:36;;;;;;;1.58;1.48;;;23.90;99.70;;;;;;5047894;28;20216;-72
2021/09/17 08:42:06;;;;;;;1.30;1.30;;;24.00;99.70;;;;;;5047031;28;20430;-73
2021/09/17 08:44:34;;;;;;;1.30;1.30;;;24.20;99.50;;;;;;5047775;28;20305;-72
2021/09/17 08:47:03;;;;;;;1.20;1.20;;;24.40;99.20;;;;;;5047853;28;20197;-71
2021/09/17 08:49:31;;;;;;;4.30;1.17;;;24.50;99.10;;;;;;5078765;28;20601;-72
2021/09/17 08:51:58;;;;;;;1.65;1.13;;;24.60;98.90;;;;;;5046490;28;20209;-73
2021/09/17 08:54:25;;;;;;;1.58;1.48;;;24.60;98.70;;;;;;5045895;28;20665;-72
2021/09/17 08:56:52;;;;;;;4.63;3.45;;;24.60;98.60;;;;;;5043681;28;20205;-72
2021/09/17 08:59:20;;;;;;;3.92;3.53;;;24.50;98.50;;;;;;5045638;28;20202;-73
2021/09/17 09:01:47;;;;;;;2.90;2.70;;;24.30;98.70;;;;;;5046814;28;20713;-73
2021/09/17 09:04:14;;;;;;;2.85;2.58;;;24.10;98.80;;;;;;5041780;28;20213;-72
2021/09/17 09:06:46;;;;;;;2.45;2.25;;;24.00;98.90;;;;;;5048057;28;20259;-72
2021/09/17 09:09:16;;;;;;;1.80;1.70;;;23.90;99.10;;;;;;5044780;28;20643;-71
2021/09/17 09:11:46;;;;;;;1.60;1.50;;;23.80;99.20;;;;;;5058277;28;21417;-71
2021/09/17 09:14:14;;;;;;;1.55;1.45;;;23.70;99.30;;;;;;5047402;28;20492;-71
2021/09/17 09:16:43;;;;;;;1.30;1.30;;;23.70;99.40;;;;;;5035136;28;20205;-72
2021/09/17 09:19:25;;;;;;;0.88;0.88;;;23.70;99.50;;;;;;5046914;28;20557;-71
2021/09/17 09:21:55;;;;;;;1.23;1.13;;;23.70;99.50;;;;;;5045908;28;20216;-73
2021/09/17 09:24:24;;;;;;;1.27;1.27;;;23.70;99.60;;;;;;5045917;28;20201;-72
2021/09/17 09:27:09;;;;;;;1.40;1.40;;;23.70;99.60;;;;;;5046044;28;20201;-72
2021/09/17 09:29:36;;;;;;;2.35;2.15;;;23.70;99.60;;;;;;5046990;28;20197;-71
2021/09/17 09:32:04;;;;;;;2.47;2.33;;;23.60;99.60;;;;;;5047128;28;20205;-71
2021/09/17 09:34:52;;;;;;;2.45;2.30;;;23.60;99.70;;;;;;5047329;28;20202;-72
2021/09/17 09:37:22;;;;;;;2.20;2.10;;;23.60;99.80;;;;;;5046690;28;20209;-72
2021/09/17 09:39:54;;;;;;;2.22;2.13;;;23.60;99.90;;;;;;5045953;28;20248;-73
2021/09/17 09:42:29;;;;;;;2.13;2.03;;;23.70;99.90;;;;;;5036866;28;20209;-73
2021/09/17 09:45:17;;;;;;;2.25;2.15;;;23.70;99.80;;;;;;5047735;28;20193;-72
2021/09/17 09:47:47;;;;;;;1.65;1.55;;;23.70;99.70;;;;;;5043492;28;20226;-72
2021/09/17 09:50:15;;;;;;;1.20;1.20;;;23.70;99.70;;;;;;5048157;28;20198;-72
2021/09/17 09:52:44;;;;;;;1.30;1.30;;;23.80;99.80;;;;;;5045411;28;20209;-72
2021/09/17 09:55:11;;;;;;;1.40;1.30;;;23.80;99.80;;;;;;5045275;28;20225;-72
2021/09/17 09:57:38;;;;;;;1.15;1.15;;;23.70;99.60;;;;;;5044178;28;20427;-73
2021/09/17 10:00:08;;;;;;;1.10;1.10;;;23.70;99.70;;;;;;5046530;28;20267;-73
2021/09/17 10:02:43;;;;;;;0.90;0.90;;;23.70;99.80;;;;;;5040013;28;20198;-73
2021/09/17 10:05:13;;;;;;;1.10;1.10;;;23.70;99.70;;;;;;5047143;28;20196;-73
2021/09/17 10:07:41;;;;;;;1.17;1.17;;;23.60;99.60;;;;;;5074002;28;20340;-72
2021/09/17 10:10:12;;;;;;;1.00;1.00;;;23.60;99.60;;;;;;5045373;28;20198;-71
2021/09/17 10:12:40;;;;;;;0.98;0.98;;;23.70;99.60;;;;;;5036907;28;20237;-72
2021/09/17 10:15:09;;;;;;;1.17;1.17;;;23.70;99.60;;;;;;5046139;28;20443;-72
2021/09/17 10:17:38;;;;;;;0.90;0.90;;;23.70;99.50;;;;;;5038667;28;20201;-72
2021/09/17 10:20:08;;;;;;;1.10;1.10;;;23.70;99.60;;;;;;5045850;28;20731;-71
2021/09/17 10:22:37;;;;;;;2.05;1.88;;;23.60;99.60;;;;;;5046990;28;20198;-72
2021/09/17 10:25:12;;;;;;;1.67;1.58;;;23.60;99.60;;;;;;5043473;28;20194;-72
2021/09/17 10:27:40;;;;;;;1.60;1.50;;;23.60;99.70;;;;;;5044953;28;20217;-72
2021/09/17 10:30:10;;;;;;;1.80;1.70;;;23.60;99.70;;;;;;5046835;28;20206;-73
2021/09/17 10:32:40;;;;;;;1.75;1.65;;;23.70;99.80;;;;;;5044671;28;20202;-73
2021/09/17 10:35:11;;;;;;;1.38;1.27;;;23.70;99.80;;;;;;5043159;28;20205;-72
2021/09/17 10:38:02;;;;;;;1.33;1.33;;;23.70;99.80;;;;;;5046176;28;20601;-72
2021/09/17 10:40:50;;;;;;;1.25;1.25;;;23.70;99.90;;;;;;5044977;28;20225;-72
2021/09/17 10:43:23;;;;;;;2.00;1.58;;;23.70;99.90;;;;;;5045126;28;20519;-74
2021/09/17 10:45:51;;;;;;;1.70;1.60;;;23.70;99.90;;;;;;5048052;28;20524;-72
2021/09/17 10:48:20;;;;;;;2.50;1.52;;;23.70;99.90;;;;;;5049944;28;20224;-72
2021/09/17 10:50:53;;;;;;;1.60;1.50;;;23.70;99.90;;;;;;5049229;28;20213;-72
2021/09/17 10:53:53;;;;;;;1.20;1.20;;;23.70;99.90;;;;;;5045524;28;20662;-73
2021/09/17 10:56:22;;;;;;;1.38;1.33;;;23.70;99.90;;;;;;5043414;28;20216;-72
2021/09/17 10:59:15;;;;;;;1.50;1.40;;;23.70;99.90;;;;;;5050943;28;20687;-72
2021/09/17 11:01:58;;;;;;;1.23;1.23;;;23.60;99.90;;;;;;5078077;28;20222;-71
2021/09/17 11:04:27;;;;;;;1.20;1.20;;;23.60;99.90;;;;;;5047935;28;20564;-72
2021/09/17 11:06:55;;;;;;;0.93;0.93;;;23.50;99.90;;;;;;5047930;28;20661;-72
2021/09/17 11:09:42;;;;;;;1.10;1.10;;;23.50;99.90;;;;;;5045638;28;20226;-70
2021/09/17 11:12:19;;;;;;;1.08;1.08;;;23.40;99.90;;;;;;5045735;28;20881;-70
2021/09/17 11:14:58;;;;;;;0.93;0.93;;;23.30;99.90;;;;;;5046231;28;20566;-69
2021/09/17 11:17:50;;;;;;;0.95;0.95;;;22.90;99.90;;;;;;5046454;28;20848;-70
2021/09/17 11:20:19;;;;;;;1.10;1.10;;;23.10;99.90;;;;;;5005938;28;20301;-70
2021/09/17 11:22:58;;;;;;;3.03;2.83;;;23.00;99.90;;;;;;4990387;28;20199;-70
2021/09/17 11:25:30;;;;;;;3.10;2.67;;;22.90;99.90;;;;;;5006325;28;20219;-69
2021/09/17 11:27:59;;;;;;;4.15;3.75;;;22.80;99.90;;;;;;5005887;28;20798;-69
2021/09/17 11:30:28;;;;;;;4.35;3.92;;;22.70;99.90;;;;;;5005454;28;20207;-69
2021/09/17 11:32:55;;;;;;;5.47;3.78;;;22.70;99.90;;;;;;4985902;28;20262;-69
2021/09/17 11:35:22;;;;;;;3.05;2.85;;;22.70;99.90;;;;;;5002912;28;20458;-69
2021/09/17 11:37:51;;;;;;;3.05;2.67;;;22.70;99.90;;;;;;5003852;28;20756;-69
2021/09/17 11:40:18;;;;;;;2.25;2.15;;;22.80;99.90;;;;;;5005977;28;20931;-69
2021/09/17 11:42:45;;;;;;;1.60;1.50;;;22.90;99.90;;;;;;5002776;28;20628;-69
2021/09/17 11:45:16;;;;;;;2.83;2.08;;;23.00;99.90;;;;;;4988478;28;20211;-69
2021/09/17 11:47:47;;;;;;;2.25;2.05;;;23.10;99.90;;;;;;4986572;28;20299;-69
2021/09/17 11:50:15;;;;;;;2.10;1.67;;;23.20;99.90;;;;;;5003917;28;20200;-68
2021/09/17 11:52:45;;;;;;;2.60;2.40;;;23.20;99.90;;;;;;5004479;28;20203;-68
2021/09/17 11:55:15;;;;;;;2.80;2.60;;;23.20;99.90;;;;;;5006160;28;20269;-70
2021/09/17 11:57:44;;;;;;;3.45;2.30;;;23.10;99.90;;;;;;5039081;28;20217;-69
2021/09/17 12:00:15;;;;;;;2.95;2.70;;;23.10;99.90;;;;;;5047404;28;20251;-69
2021/09/17 12:02:43;;;;;;;3.97;2.42;;;23.00;99.90;;;;;;5044580;28;20289;-70
2021/09/17 12:05:15;;;;;;;4.03;2.83;;;23.10;99.90;;;;;;5046042;28;20500;-70
2021/09/17 12:07:43;;;;;;;2.50;2.30;;;23.10;99.90;;;;;;5046122;28;20447;-69
2021/09/17 12:10:12;;;;;;;3.17;2.33;;;23.20;99.90;;;;;;5045568;28;20214;-69
2021/09/17 12:12:41;;;;;;;2.53;2.33;;;23.50;99.90;;;;;;5045148;28;20590;-66
2021/09/17 12:15:11;;;;;;;1.98;1.88;;;23.80;99.90;;;;;;5047330;28;20554;-69
2021/09/17 12:17:54;;;;;;;1.98;1.88;;;24.10;99.90;;;;;;5040556;28;20916;-69
2021/09/17 12:20:22;;;;;;;2.08;1.88;;;24.30;99.90;;;;;;5047904;28;21038;-69
2021/09/17 12:22:58;;;;;;;1.58;1.30;;;24.50;99.90;;;;;;5047452;28;20194;-69
2021/09/17 12:25:30;;;;;;;2.30;2.10;;;24.70;99.90;;;;;;5046504;28;20242;-69
2021/09/17 12:27:59;;;;;;;2.30;2.10;;;24.90;99.90;;;;;;5046580;28;20208;-69
2021/09/17 12:30:30;;;;;;;2.50;2.35;;;25.00;99.90;;;;;;5047134;28;20206;-69
2021/09/17 12:33:23;;;;;;;4.32;3.92;;;25.00;99.90;;;;;;5047084;28;20206;-69
2021/09/17 12:35:53;;;;;;;6.65;4.65;;;24.90;99.90;;;;;;4987435;28;20739;-70
2021/09/17 12:38:22;;;;;;;3.60;3.30;;;24.70;99.90;;;;;;4971587;28;20444;-69
2021/09/17 12:40:51;;;;;;;3.22;2.92;;;24.60;99.90;;;;;;4975158;28;20215;-69
2021/09/17 12:43:26;;;;;;;2.80;2.58;;;24.50;99.90;;;;;;4977059;28;20661;-69
2021/09/17 12:46:03;;;;;;;2.10;2.00;;;24.30;99.90;;;;;;4987432;28;20501;-69
2021/09/17 12:48:32;;;;;;;1.90;1.80;;;24.10;99.90;;;;;;4992458;28;20215;-69
2021/09/17 12:51:00;;;;;;;1.48;1.48;;;23.90;99.90;;;;;;4996604;28;20218;-69
2021/09/17 12:53:33;;;;;;;4.60;1.80;;;23.70;99.90;;;;;;4974349;28;20343;-69
2021/09/17 12:56:05;;;;;;;2.20;2.00;;;23.60;99.90;;;;;;4969008;28;20212;-69